createdAt,value
2022-12-12T00:02:43.555Z,97089.00
2022-12-12T00:06:44.934Z,97085.00
2022-12-12T00:10:46.074Z,97091.00
2022-12-12T00:14:47.218Z,97103.00
2022-12-12T00:18:48.469Z,97098.00
2022-12-12T00:22:49.612Z,97095.00
2022-12-12T00:26:50.597Z,97105.00
2022-12-12T00:30:51.974Z,97101.00
2022-12-12T00:34:53.204Z,97100.00
2022-12-12T00:38:55.889Z,97096.00
2022-12-12T00:42:57.231Z,97088.00
2022-12-12T00:46:58.226Z,97102.00
2022-12-12T00:51:05.785Z,97102.00
2022-12-12T00:55:07.826Z,97099.00
2022-12-12T00:59:08.808Z,97104.00
2022-12-12T01:03:09.839Z,97105.00
2022-12-12T01:07:10.948Z,97105.00
2022-12-12T01:11:13.740Z,97099.00
2022-12-12T01:15:15.881Z,97110.00
2022-12-12T01:19:17.066Z,97103.00
2022-12-12T01:23:18.007Z,97104.00
2022-12-12T01:27:19.159Z,97109.00
2022-12-12T01:31:20.829Z,97108.00
2022-12-12T01:35:23.505Z,97109.00
2022-12-12T01:39:24.485Z,97109.00
2022-12-12T01:43:25.820Z,97112.00
2022-12-12T01:47:27.203Z,97107.00
2022-12-12T01:51:30.194Z,97125.00
2022-12-12T01:55:31.172Z,97125.00
2022-12-12T01:59:33.422Z,97124.00
2022-12-12T02:03:34.949Z,97120.00
2022-12-12T02:07:35.895Z,97120.00
2022-12-12T02:11:46.364Z,97124.00
2022-12-12T02:16:07.709Z,97118.00
2022-12-12T02:20:41.607Z,97127.00
2022-12-12T02:25:08.003Z,97122.00
2022-12-12T02:29:29.528Z,97131.00
2022-12-12T02:33:34.294Z,97125.00
2022-12-12T02:37:45.048Z,97133.00
2022-12-12T02:41:52.829Z,97127.00
2022-12-12T02:45:57.612Z,97133.00
2022-12-12T02:50:02.417Z,97135.00
2022-12-12T02:54:05.467Z,97131.00
2022-12-12T02:58:06.755Z,97133.00
2022-12-12T03:02:41.008Z,97136.00
2022-12-12T03:07:10.251Z,97137.00
2022-12-12T03:11:21.278Z,97145.00
2022-12-12T03:15:25.407Z,97137.00
2022-12-12T03:19:39.570Z,97143.00
2022-12-12T03:23:47.232Z,97137.00
2022-12-12T03:27:55.006Z,97146.00
2022-12-12T03:31:59.940Z,97138.00
2022-12-12T03:36:16.735Z,97138.00
2022-12-12T03:40:41.527Z,97146.00
2022-12-12T03:44:51.969Z,97144.00
2022-12-12T03:49:14.630Z,97142.00
2022-12-12T03:53:25.515Z,97132.00
2022-12-12T03:57:30.208Z,97145.00
2022-12-12T04:01:35.172Z,97144.00
2022-12-12T04:05:47.706Z,97145.00
2022-12-12T04:10:07.801Z,97154.00
2022-12-12T04:14:24.408Z,97161.00
2022-12-12T04:18:41.140Z,97162.00
2022-12-12T04:22:50.735Z,97150.00
2022-12-12T04:27:01.298Z,97159.00
2022-12-12T04:31:04.939Z,97158.00
2022-12-12T04:35:13.104Z,97168.00
2022-12-12T04:39:17.678Z,97182.00
2022-12-12T04:43:22.482Z,97174.00
2022-12-12T04:47:25.156Z,97173.00
2022-12-12T04:51:29.959Z,97176.00
2022-12-12T04:55:33.952Z,97180.00
2022-12-12T04:59:35.434Z,97177.00
2022-12-12T05:03:55.572Z,97182.00
2022-12-12T05:08:09.087Z,97187.00
2022-12-12T05:12:10.335Z,97185.00
2022-12-12T05:16:33.586Z,97187.00
2022-12-12T05:20:34.690Z,97188.00
2022-12-12T05:24:35.680Z,97177.00
2022-12-12T05:28:36.685Z,97191.00
2022-12-12T05:32:37.919Z,97183.00
2022-12-12T05:36:39.059Z,97185.00
2022-12-12T05:40:40.101Z,97187.00
2022-12-12T05:44:41.291Z,97191.00
2022-12-12T05:48:42.603Z,97196.00
2022-12-12T05:52:44.420Z,97188.00
2022-12-12T05:56:45.482Z,97193.00
2022-12-12T06:00:48.425Z,97195.00
2022-12-12T06:04:49.570Z,97197.00
2022-12-12T06:08:51.078Z,97199.00
2022-12-12T06:12:52.237Z,97201.00
2022-12-12T06:16:53.465Z,97207.00
2022-12-12T06:20:58.421Z,97210.00
2022-12-12T06:24:59.414Z,97206.00
2022-12-12T06:29:00.717Z,97208.00
2022-12-12T06:33:01.817Z,97209.00
2022-12-12T06:37:03.268Z,97215.00
2022-12-12T06:41:07.513Z,97203.00
2022-12-12T06:45:09.194Z,97218.00
2022-12-12T06:49:10.445Z,97218.00
2022-12-12T06:53:12.114Z,97228.00
2022-12-12T06:57:13.361Z,97223.00
2022-12-12T07:01:18.065Z,97232.00
2022-12-12T07:05:19.300Z,97233.00
2022-12-12T07:09:20.473Z,97239.00
2022-12-12T07:13:21.757Z,97239.00
2022-12-12T07:17:22.736Z,97240.00
2022-12-12T07:21:23.914Z,97246.00
2022-12-12T07:25:25.002Z,97243.00
2022-12-12T07:29:25.966Z,97256.00
2022-12-12T07:33:34.314Z,97249.00
2022-12-12T07:37:30.131Z,97261.00
2022-12-12T07:41:31.277Z,97266.00
2022-12-12T07:45:32.546Z,97265.00
2022-12-12T07:49:33.641Z,97260.00
2022-12-12T07:53:34.835Z,97269.00
2022-12-12T07:57:37.102Z,97274.00
2022-12-12T08:01:38.798Z,97269.00
2022-12-12T08:05:41.393Z,97266.00
2022-12-12T08:09:42.485Z,97270.00
2022-12-12T08:13:43.798Z,97289.00
2022-12-12T08:17:44.772Z,97285.00
2022-12-12T08:21:46.070Z,97294.00
2022-12-12T08:25:47.035Z,97293.00
2022-12-12T08:29:53.039Z,97297.00
2022-12-12T08:33:54.646Z,97301.00
2022-12-12T08:37:56.454Z,97309.00
2022-12-12T08:41:57.745Z,97307.00
2022-12-12T08:46:03.242Z,97305.00
2022-12-12T08:50:05.426Z,97317.00
2022-12-12T08:54:07.436Z,97317.00
2022-12-12T08:58:08.618Z,97303.00
2022-12-12T09:02:12.248Z,97314.00
2022-12-12T09:06:14.945Z,97321.00
2022-12-12T09:10:16.201Z,97322.00
2022-12-12T09:14:17.473Z,97334.00
2022-12-12T09:18:20.152Z,97333.00
2022-12-12T09:22:21.511Z,97338.00
2022-12-12T09:26:22.510Z,97334.00
2022-12-12T09:30:23.688Z,97339.00
2022-12-12T09:34:24.869Z,97339.00
2022-12-12T09:38:27.169Z,97329.00
2022-12-12T09:42:31.117Z,97346.00
2022-12-12T09:46:44.627Z,97345.00
2022-12-12T09:50:48.589Z,97347.00
2022-12-12T09:54:49.517Z,97352.00
2022-12-12T09:59:09.451Z,97345.00
2022-12-12T10:03:29.454Z,97351.00
2022-12-12T10:07:34.214Z,97342.00
2022-12-12T10:11:52.187Z,97347.00
2022-12-12T10:15:56.332Z,97344.00
2022-12-12T10:20:02.037Z,97341.00
2022-12-12T10:24:12.949Z,97347.00
2022-12-12T10:28:35.668Z,97338.00
2022-12-12T10:32:46.349Z,97334.00
2022-12-12T10:37:00.160Z,97334.00
2022-12-12T10:41:17.113Z,97332.00
2022-12-12T10:45:28.045Z,97345.00
2022-12-12T10:49:30.207Z,97334.00
2022-12-12T10:53:31.779Z,97334.00
2022-12-12T10:57:36.077Z,97339.00
2022-12-12T11:02:08.424Z,97343.00
2022-12-12T11:05:41.476Z,97331.00
2022-12-12T11:09:45.284Z,97330.00
2022-12-12T11:13:52.934Z,97327.00
2022-12-12T11:18:01.247Z,97323.00
2022-12-12T11:22:03.750Z,97320.00
2022-12-12T11:26:13.507Z,97322.00
2022-12-12T11:30:38.721Z,97318.00
2022-12-12T11:34:43.578Z,97318.00
2022-12-12T11:38:51.307Z,97320.00
2022-12-12T11:42:56.216Z,97316.00
2022-12-12T11:47:17.464Z,97315.00
2022-12-12T11:51:34.374Z,97310.00
2022-12-12T11:56:00.429Z,97311.00
2022-12-12T12:00:08.847Z,97306.00
2022-12-12T12:04:19.649Z,97313.00
2022-12-12T12:08:30.659Z,97301.00
2022-12-12T12:12:38.155Z,97298.00
2022-12-12T12:16:55.301Z,97150.00
2022-12-12T12:21:02.998Z,97304.00
2022-12-12T12:25:25.865Z,97308.00
2022-12-12T12:29:30.645Z,97294.00
2022-12-12T12:34:00.090Z,97294.00
2022-12-12T12:38:14.077Z,97301.00
2022-12-12T12:42:36.851Z,97298.00
2022-12-12T12:46:53.982Z,97302.00
2022-12-12T12:51:15.789Z,97303.00
2022-12-12T12:55:20.571Z,97299.00
2022-12-12T12:59:25.350Z,97298.00
2022-12-12T13:03:30.180Z,97282.00
2022-12-12T13:07:44.325Z,97278.00
2022-12-12T13:11:48.453Z,97278.00
2022-12-12T13:16:08.723Z,97283.00
2022-12-12T13:20:19.980Z,97276.00
2022-12-12T13:24:27.698Z,97287.00
2022-12-12T13:28:32.653Z,97291.00
2022-12-12T13:32:57.327Z,97281.00
2022-12-12T13:36:59.134Z,97279.00
2022-12-12T13:41:05.749Z,97285.00
2022-12-12T13:45:38.292Z,97293.00
2022-12-12T13:49:55.354Z,97292.00
2022-12-12T13:54:14.209Z,97297.00
2022-12-12T13:58:22.054Z,97292.00
2022-12-12T14:02:32.728Z,97287.00
2022-12-12T14:06:33.907Z,97287.00
2022-12-12T14:10:38.452Z,97283.00
2022-12-12T14:14:41.538Z,97288.00
2022-12-12T14:18:58.942Z,97284.00
2022-12-12T14:23:10.043Z,97289.00
2022-12-12T14:27:11.362Z,97287.00
2022-12-12T14:31:16.641Z,97287.00
2022-12-12T14:35:24.761Z,97285.00
2022-12-12T14:39:36.112Z,97289.00
2022-12-12T14:43:41.247Z,97306.00
2022-12-12T14:47:42.345Z,97298.00
2022-12-12T14:51:47.465Z,97309.00
2022-12-12T14:55:52.065Z,97321.00
2022-12-12T14:59:53.135Z,97308.00
2022-12-12T15:03:55.033Z,97305.00
2022-12-12T15:07:59.332Z,97299.00
2022-12-12T15:12:13.074Z,97295.00
2022-12-12T15:16:14.354Z,97293.00
2022-12-12T15:20:22.253Z,97304.00
2022-12-12T15:24:29.167Z,97304.00
2022-12-12T15:28:32.172Z,97312.00
2022-12-12T15:32:33.240Z,97302.00
2022-12-12T15:36:34.500Z,97309.00
2022-12-12T15:40:37.000Z,97309.00
2022-12-12T15:44:39.480Z,97302.00
2022-12-12T15:48:46.972Z,97312.00
2022-12-12T15:53:01.040Z,97315.00
2022-12-12T15:57:02.377Z,97319.00
2022-12-12T16:01:21.752Z,97314.00
2022-12-12T16:05:26.319Z,97315.00
2022-12-12T16:09:27.712Z,97315.00
2022-12-12T16:13:43.712Z,97305.00
2022-12-12T16:18:00.854Z,97308.00
2022-12-12T16:22:22.333Z,97307.00
2022-12-12T16:26:23.550Z,97311.00
2022-12-12T16:30:25.983Z,97319.00
2022-12-12T16:34:27.193Z,97323.00
2022-12-12T16:38:29.950Z,97318.00
2022-12-12T16:42:31.131Z,97324.00
2022-12-12T16:46:32.152Z,97320.00
2022-12-12T16:50:33.373Z,97311.00
2022-12-12T16:54:34.530Z,97322.00
2022-12-12T16:58:36.975Z,97318.00
2022-12-12T17:02:38.678Z,97321.00
2022-12-12T17:06:39.714Z,97326.00
2022-12-12T17:10:41.367Z,97332.00
2022-12-12T17:14:42.526Z,97323.00
2022-12-12T17:18:43.820Z,97322.00
2022-12-12T17:22:45.259Z,97317.00
2022-12-12T17:26:46.544Z,97318.00
2022-12-12T17:30:49.753Z,97324.00
2022-12-12T17:34:50.791Z,97333.00
2022-12-12T17:38:51.992Z,97333.00
2022-12-12T17:42:52.983Z,97340.00
2022-12-12T17:46:55.608Z,97346.00
2022-12-12T17:51:02.170Z,97347.00
2022-12-12T17:55:54.569Z,97347.00
2022-12-12T17:59:08.035Z,97341.00
2022-12-12T18:03:09.333Z,97349.00
2022-12-12T18:07:10.497Z,97348.00
2022-12-12T18:11:14.768Z,97340.00
2022-12-12T18:15:15.973Z,97332.00
2022-12-12T18:19:22.915Z,97320.00
2022-12-12T18:23:24.221Z,97322.00
2022-12-12T18:27:25.672Z,97320.00
2022-12-12T18:31:27.713Z,97324.00
2022-12-12T18:35:29.030Z,97317.00
2022-12-12T18:39:30.475Z,97311.00
2022-12-12T18:43:32.865Z,97318.00
2022-12-12T18:47:34.804Z,97330.00
2022-12-12T18:51:36.597Z,97329.00
2022-12-12T18:55:44.061Z,97332.00
2022-12-12T18:59:46.188Z,97343.00
2022-12-12T19:03:51.408Z,97341.00
2022-12-12T19:07:53.558Z,97336.00
2022-12-12T19:12:02.211Z,97342.00
2022-12-12T19:16:06.056Z,97348.00
2022-12-12T19:20:08.514Z,97358.00
2022-12-12T19:24:11.703Z,97348.00
2022-12-12T19:28:12.987Z,97349.00
2022-12-12T19:32:15.218Z,97344.00
2022-12-12T19:36:24.171Z,97343.00
2022-12-12T19:40:25.246Z,97336.00
2022-12-12T19:44:26.634Z,97337.00
2022-12-12T19:48:27.773Z,97343.00
2022-12-12T19:52:28.857Z,97330.00
2022-12-12T19:56:33.401Z,97339.00
2022-12-12T20:00:35.033Z,97339.00
2022-12-12T20:04:38.178Z,97327.00
2022-12-12T20:08:39.326Z,97337.00
2022-12-12T20:12:49.401Z,97334.00
2022-12-12T20:16:44.318Z,97347.00
2022-12-12T20:20:45.370Z,97337.00
2022-12-12T20:24:46.690Z,97346.00
2022-12-12T20:28:48.290Z,97348.00
2022-12-12T20:32:49.249Z,97343.00
2022-12-12T20:36:50.143Z,97348.00
2022-12-12T20:40:51.266Z,97354.00
2022-12-12T20:44:52.489Z,97345.00
2022-12-12T20:48:53.493Z,97339.00
2022-12-12T20:52:54.628Z,97345.00
2022-12-12T20:56:57.517Z,97351.00
2022-12-12T21:00:58.964Z,97351.00
2022-12-12T21:05:00.185Z,97351.00
2022-12-12T21:09:04.874Z,97349.00
2022-12-12T21:13:06.315Z,97340.00
2022-12-12T21:17:07.426Z,97336.00
2022-12-12T21:21:11.859Z,97343.00
2022-12-12T21:25:13.188Z,97348.00
2022-12-12T21:29:15.521Z,97343.00
2022-12-12T21:33:16.800Z,97330.00
2022-12-12T21:37:18.071Z,97330.00
2022-12-12T21:41:20.624Z,97340.00
2022-12-12T21:45:21.967Z,97344.00
2022-12-12T21:53:33.832Z,97343.00
2022-12-12T21:57:35.098Z,97334.00
2022-12-12T22:01:36.157Z,97347.00
2022-12-12T22:05:37.112Z,97333.00
2022-12-12T22:09:39.418Z,97322.00
2022-12-12T22:13:42.103Z,97325.00
2022-12-12T22:17:43.120Z,97328.00
2022-12-12T22:21:46.346Z,97324.00
2022-12-12T22:25:47.922Z,97325.00
2022-12-12T22:29:48.890Z,97318.00
2022-12-12T22:33:55.483Z,97311.00
2022-12-12T22:37:56.483Z,97313.00
2022-12-12T22:41:57.439Z,97337.00
2022-12-12T22:46:06.610Z,97306.00
2022-12-12T22:50:08.139Z,97314.00
2022-12-12T22:54:09.391Z,97306.00
2022-12-12T22:58:10.241Z,97319.00
2022-12-12T23:02:11.184Z,97303.00
2022-12-12T23:06:16.021Z,97296.00
2022-12-12T23:10:17.429Z,97316.00
2022-12-12T23:14:22.392Z,97295.00
2022-12-12T23:18:23.687Z,97294.00
2022-12-12T23:22:24.964Z,97294.00
2022-12-12T23:26:29.257Z,97288.00
2022-12-12T23:30:30.371Z,97296.00
2022-12-12T23:34:31.335Z,97297.00
2022-12-12T23:38:32.740Z,97311.00
2022-12-12T23:42:33.755Z,97302.00
2022-12-12T23:46:35.679Z,97291.00
2022-12-12T23:50:36.794Z,97293.00
2022-12-12T23:54:37.917Z,97299.00
2022-12-12T23:58:39.029Z,97284.00
